• Join FlightAware (Why Join?)
  • Login
  • US Flag 
02:33AM EDT


 

Airport Tracker/Info


-or-


 

Live Flight TrackerFlight Track Log ✈ UPS2292 ✈ 25-Jul-2013 ✈ KDFW - KMCO

Flight Track Log - Related Links

Times and Time Zones

All times are in EDT time to prevent confusion due to time zone crossing. See the UPS2292 flight status page for this flight to view local times or setup timezone preferences in your user account.

Time Position Orientation Groundspeed Altitude Reporting Facility
EDT Latitude Longitude Course Direction KTS MPH feet Rate Location/Type
01:41PM 32.8590 -97.0300 180° South 199 229 2,800  Level FlightAware
01:41PM 32.8370 -97.0300 180° South 240 276 3,400 2,580 Climbing FlightAware
01:42PM 32.7990 -97.0310 181° South 264 304 5,100 3,540 Climbing FlightAware
01:42PM 32.7770 -97.0310 180° South 272 313 6,300 3,960 Climbing FlightAware
01:42PM 32.7470 -97.0190 161° South 278 320 7,900 3,840 Climbing FlightAware
01:43PM 32.7370 -97.0040 128° Southeast 280 322 8,700 2,700 Climbing FlightAware
01:43PM 32.7200 -96.9570 113° Southeast 301 346 9,900 1,020 Climbing FlightAware
01:44PM 32.7270 -96.9000 82° East 342 394 9,900  Level FlightAware
01:44PM 32.7420 -96.8350 75° East 368 423 9,900 60 Level FlightAware
01:45PM 32.7550 -96.7840 73° East 375 432 10,000 1,980 Climbing FlightAware
01:45PM 32.7720 -96.7130 74° East 382 440 11,900 3,300 Climbing FlightAware
01:46PM 32.7950 -96.6200 74° East 392 451 14,400 3,000 Climbing FlightAware
01:47PM 32.8130 -96.5490 73° East 409 471 15,900 2,580 Climbing FlightAware
01:47PM 32.8370 -96.4470 74° East 427 491 17,900 2,520 Climbing FlightAware
01:48PM 32.8630 -96.3400 74° East 439 505 19,800 2,340 Climbing FlightAware
01:49PM 32.8680 -96.2350 87° East 450 518 21,400 2,160 Climbing FlightAware
01:50PM 32.8690 -96.1370 89° East 465 535 22,800 1,260 Climbing FlightAware
01:50PM 32.8710 -96.0460 88° East 480 552 23,000 300 Climbing FlightAware
01:51PM 32.8730 -95.9430 89° East 477 549 23,200 1,140 Climbing FlightAware
01:51PM 32.8740 -95.8430 89° East 482 555 24,500 2,040 Climbing FlightAware
01:52PM 32.8760 -95.7360 89° East 488 562 25,900 2,340 Climbing FlightAware
01:53PM 32.8772 -95.6535 89° East 482 555 27,300 2,460 Climbing FlightAware ADS-B
01:54PM 32.8790 -95.5140 89° East 479 551 29,400 2,340 Climbing FlightAware
01:54PM 32.8813 -95.3938 89° East 471 542 31,200 1,980 Climbing FlightAware ADS-B
01:55PM 32.8884 -95.3168 84° East 471 542 31,900 1,500 Climbing FlightAware ADS-B
01:56PM 32.9088 -95.1870 79° East 472 543 33,300 1,440 Climbing FlightAware ADS-B
01:56PM 32.9252 -95.0804 80° East 472 543 34,200 1,140 Climbing FlightAware ADS-B
01:57PM 32.9400 -94.9800 80° East 476 548 34,900 600 Climbing FlightAware
01:58PM 32.9554 -94.8836 79° East 485 558 35,000 60 Climbing FlightAware ADS-B
01:58PM 32.9674 -94.8024 80° East 484 557 35,000  Level FlightAware ADS-B
01:59PM 32.9799 -94.7188 80° East 481 554 35,000  Level FlightAware ADS-B
01:59PM 32.9916 -94.6407 80° East 479 551 35,000  Level FlightAware ADS-B
02:00PM 33.0060 -94.5620 78° East 483 556 35,000  Level FlightAware
02:01PM 33.0200 -94.4780 79° East 483 556 35,000  Level FlightAware
02:02PM 33.0460 -94.2660 82° East 473 544 35,000  Level FlightAware
02:02PM 33.0580 -94.1850 80° East 473 544 35,000  Level FlightAware
02:03PM 33.0860 -93.9890 80° East 473 544 35,000  Level FlightAware
02:04PM 33.1000 -93.8911 80° East 474 545 35,000  Level FlightAware ADS-B
02:04PM 33.1105 -93.8164 80° East 475 547 35,000  Level FlightAware ADS-B
02:06PM 33.0926 -93.6510 97° East 478 550 35,000  Level FlightAware ADS-B
02:06PM 33.0749 -93.5537 102° East 478 550 35,000  Level FlightAware ADS-B
02:06PM 33.0720 -93.5380 102° East 488 562 35,000  Level FlightAware ADS-B
02:07PM 33.0520 -93.4260 102° East 487 560 35,000  Level FlightAware
02:08PM 33.0380 -93.3450 102° East 487 560 35,000  Level FlightAware
02:09PM 33.0078 -93.1795 102° East 486 559 35,000  Level FlightAware ADS-B
02:09PM 32.9925 -93.0935 102° East 484 557 35,000  Level FlightAware ADS-B
02:10PM 32.9840 -93.0440 102° East 487 560 35,000  Level FlightAware
02:11PM 32.9700 -92.9650 102° East 487 560 35,000  Level FlightAware
02:12PM 32.9250 -92.7139 102° East 484 557 35,000  Level Fort Worth Center
02:13PM 32.8961 -92.5569 102° East 484 557 35,000  Level Fort Worth Center
02:14PM 32.8672 -92.4053 103° East 484 557 35,000  Level Fort Worth Center
02:15PM 32.8381 -92.2511 103° East 484 557 35,000  Level Fort Worth Center
02:17PM 32.7631 -91.8692 103° East 471 542 35,000  Level Memphis Center
02:18PM 32.7314 -91.7156 104° East 471 542 35,000  Level Memphis Center
02:19PM 32.7039 -91.5597 102° East 477 549 35,000  Level Memphis Center
02:20PM 32.6697 -91.4061 105° East 471 542 35,000  Level Memphis Center
02:21PM 32.6436 -91.2528 101° East 471 542 35,000  Level Memphis Center
02:22PM 32.6092 -91.0972 105° East 471 542 35,000  Level Memphis Center
02:23PM 32.5828 -90.9564 103° East 478 550 35,000  Level Memphis Center
02:24PM 32.5522 -90.8033 103° East 478 550 35,000  Level Memphis Center
02:25PM 32.5192 -90.6456 104° East 478 550 35,000  Level Memphis Center
02:26PM 32.4881 -90.4928 104° East 478 550 35,000  Level Memphis Center
02:27PM 32.4569 -90.3353 103° East 483 556 35,000  Level Memphis Center
02:28PM 32.4233 -90.1775 104° East 483 556 35,000  Level Memphis Center
02:33PM 32.2480 -89.3390 104° East 491 565 35,000  Level FlightAware
02:34PM 32.2260 -89.2380 104° East 493 567 35,000  Level FlightAware
02:35PM 32.2050 -89.1410 104° East 493 567 35,000  Level FlightAware
02:35PM 32.1810 -89.0290 104° East 493 567 35,000  Level FlightAware
02:36PM 32.1550 -88.9120 105° East 492 566 35,000  Level FlightAware
02:37PM 32.1340 -88.8160 104° East 491 565 35,000  Level FlightAware
02:37PM 32.1100 -88.7080 105° East 489 563 35,000  Level FlightAware
02:38PM 32.0830 -88.5860 105° East 488 562 35,000  Level FlightAware
02:39PM 32.0620 -88.4920 105° East 487 560 35,000  Level FlightAware
02:40PM 32.0410 -88.3940 104° East 487 560 35,000  Level FlightAware
02:40PM 32.0110 -88.2630 105° East 488 562 35,000  Level FlightAware
02:41PM 31.9860 -88.1520 105° East 489 563 35,000  Level FlightAware
02:42PM 31.9630 -88.0490 105° East 488 562 35,000  Level FlightAware
02:42PM 31.9390 -87.9420 105° East 486 559 35,000  Level FlightAware
02:43PM 31.9130 -87.8300 105° East 485 558 35,000  Level FlightAware
02:44PM 31.8920 -87.7350 105° East 486 559 35,000  Level FlightAware
02:44PM 31.8650 -87.6180 105° East 487 560 35,000  Level FlightAware
02:45PM 31.8390 -87.5050 105° East 486 559 35,000  Level FlightAware
02:46PM 31.8160 -87.4090 106° East 483 556 35,000  Level FlightAware
02:47PM 31.7890 -87.2920 105° East 481 554 35,000  Level FlightAware
02:48PM 31.7490 -87.1220 105° East 477 549 35,000  Level FlightAware
02:49PM 31.7170 -86.9850 105° East 475 547 35,000  Level FlightAware
02:49PM 31.6900 -86.8700 105° East 476 548 35,000  Level FlightAware
02:50PM 31.6660 -86.7660 105° East 470 541 35,000  Level FlightAware
02:51PM 31.6430 -86.6710 106° East 468 539 35,000  Level FlightAware
02:51PM 31.6240 -86.5900 105° East 472 543 35,000  Level FlightAware
02:52PM 31.5880 -86.4410 106° East 475 547 35,000  Level FlightAware
02:53PM 31.5630 -86.3400 106° East 474 545 35,000  Level FlightAware
02:54PM 31.5390 -86.2410 106° East 471 542 35,000  Level FlightAware
02:54PM 31.5140 -86.1380 106° East 472 543 35,000  Level FlightAware
02:55PM 31.4880 -86.0300 106° East 473 544 35,000  Level FlightAware
02:56PM 31.4630 -85.9290 106° East 474 545 35,000  Level FlightAware
02:56PM 31.4380 -85.8280 106° East 470 541 35,000  Level FlightAware
02:57PM 31.4150 -85.7330 106° East 468 539 35,000  Level FlightAware
02:58PM 31.3910 -85.6350 106° East 468 539 35,000  Level FlightAware
02:58PM 31.3730 -85.5610 106° East 468 539 35,000  Level FlightAware
02:59PM 31.3480 -85.4610 106° East 468 539 35,000  Level FlightAware
03:00PM 31.3300 -85.3870 106° East 468 539 35,000  Level FlightAware
03:01PM 31.3050 -85.2850 106° East 468 539 35,000  Level FlightAware
03:01PM 31.2860 -85.2090 106° East 468 539 35,000  Level FlightAware
03:02PM 31.2660 -85.1240 105° East 468 539 35,000  Level FlightAware
03:03PM 31.2350 -85.0000 106° East 468 539 35,000  Level FlightAware
03:04PM 31.2150 -84.9190 106° East 468 539 35,000  Level FlightAware
03:04PM 31.1910 -84.8200 106° East 468 539 35,000  Level FlightAware
03:05PM 31.1740 -84.7490 106° East 468 539 35,000  Level FlightAware
03:06PM 31.1490 -84.6480 106° East 468 539 35,000  Level FlightAware
03:06PM 31.1300 -84.5720 106° East 468 539 35,000 -2,700 Level FlightAware
03:07PM 30.8670 -84.2780 136° Southeast 486 559 31,000 -2,880 Descending FlightAware
03:08PM 30.8220 -84.1840 119° Southeast 489 563 30,500 -900 Descending FlightAware
03:09PM 30.7750 -84.0910 120° Southeast 492 566 29,800 -1,020 Descending FlightAware
03:09PM 30.7300 -84.0040 121° Southeast 497 572 29,200 -720 Descending FlightAware
03:10PM 30.6860 -83.9140 120° Southeast 497 572 28,900 -1,080 Descending FlightAware
03:11PM 30.6310 -83.8060 121° Southeast 503 579 27,700 -960 Descending FlightAware
03:12PM 30.5430 -83.6340 121° Southeast 498 573 27,000 -360 Descending FlightAware
03:13PM 30.4950 -83.5380 120° Southeast 493 567 27,000  Level FlightAware
03:14PM 30.4420 -83.4350 121° Southeast 493 567 27,000  Level FlightAware
03:14PM 30.4070 -83.3630 119° Southeast 493 567 27,000  Level FlightAware
03:15PM 30.3620 -83.2680 119° Southeast 493 567 27,000  Level FlightAware
03:15PM 30.3300 -83.2010 119° Southeast 493 567 27,000  Level FlightAware
03:16PM 30.2840 -83.1050 119° Southeast 493 567 27,000  Level FlightAware
03:17PM 30.2490 -83.0330 119° Southeast 493 567 27,000 -120 Level FlightAware
03:18PM 30.1411 -82.8014 119° Southeast 490 564 26,800 -360 Descending Jacksonville Center
03:23PM 29.6060 -82.2770 119° Southeast 473 544 25,000 -360 Descending FlightAware
03:24PM 29.5360 -82.2420 156° South 473 544 25,000  Level FlightAware
03:25PM 29.4530 -82.1990 156° South 473 544 25,000  Level FlightAware
03:25PM 29.3920 -82.1680 156° South 473 544 25,000  Level FlightAware
03:26PM 29.3100 -82.1260 156° South 473 544 25,000  Level FlightAware
03:27PM 29.2490 -82.0950 156° South 473 544 25,000 -8,040 Level FlightAware
03:28PM 29.1500 -81.9500 156° South 408 470 13,100 -8,100 Descending Orlando TRACON
03:28PM 29.0833 -81.9000 147° Southeast 368 423 12,200 -900 Descending Orlando TRACON
03:29PM 29.0328 -81.8594 145° Southeast 393 452 11,900 -180 Descending Jacksonville Center
03:30PM 28.9717 -81.8008 140° Southeast 340 391 11,900 -420 Level Jacksonville Center
03:31PM 28.9356 -81.7231 118° Southeast 291 335 11,100 -1,080 Descending Jacksonville Center
03:32PM 28.8994 -81.6475 119° Southeast 280 322 9,800 -1,140 Descending Jacksonville Center
03:33PM 28.8631 -81.5719 119° Southeast 274 315 8,900 -540 Descending Jacksonville Center
03:34PM 28.8164 -81.5064 129° Southeast 269 310 8,800 -1,080 Descending Jacksonville Center
03:35PM 28.7761 -81.4333 122° Southeast 269 310 6,800 -2,040 Descending Jacksonville Center
03:36PM 28.7131 -81.4036 158° South 246 283 4,800 -1,860 Descending Jacksonville Center
03:37PM 28.6503 -81.3786 161° South 241 277 3,100 -960 Descending Jacksonville Center
03:38PM 28.5833 -81.3500 159° South 177 204 2,600 -300 Descending Orlando TRACON
03:39PM 28.5500 -81.3167 139° Southeast 145 167 2,400 -660 Descending Orlando TRACON
03:40PM 28.5000 -81.3167 180° South 129 148 1,300 -900 Descending Orlando TRACON
03:41PM 28.4667 -81.3167 180° South 133 153 700 -600 Descending Orlando TRACON
03:43PM 28.4294 -81.3090 180° South  Level Estimated
03:50PM 28.4294 -81.3090 24° Northeast  Level Estimated
03:51PM 28.4294 -81.3090 24° Northeast  Level Estimated
03:52PM 28.4294 -81.3090 24° Northeast  Level Estimated
03:53PM 28.4294 -81.3090 24° Northeast  Level Estimated